createdAt,value
2023-02-11T00:02:54.927Z,85.32
2023-02-11T00:07:56.906Z,85.33
2023-02-11T00:12:58.984Z,85.31
2023-02-11T00:18:00.653Z,85.21
2023-02-11T00:23:02.351Z,85.24
2023-02-11T00:28:04.437Z,85.11
2023-02-11T00:33:06.186Z,85.08
2023-02-11T00:38:07.960Z,85.14
2023-02-11T00:43:09.728Z,85.03
2023-02-11T00:48:11.434Z,84.98
2023-02-11T00:53:13.175Z,85.07
2023-02-11T00:58:14.860Z,85.02
2023-02-11T01:03:16.623Z,84.90
2023-02-11T01:08:19.433Z,84.91
2023-02-11T01:13:21.816Z,84.97
2023-02-11T01:18:24.413Z,84.88
2023-02-11T01:23:26.230Z,84.85
2023-02-11T01:28:29.786Z,84.89
2023-02-11T01:33:31.896Z,84.78
2023-02-11T01:38:35.605Z,84.64
2023-02-11T01:43:46.400Z,84.83
2023-02-11T01:48:55.408Z,84.85
2023-02-11T01:54:16.984Z,84.79
2023-02-11T01:59:29.915Z,84.80
2023-02-11T02:04:46.333Z,84.75
2023-02-11T02:10:04.080Z,84.76
2023-02-11T02:15:21.730Z,84.84
2023-02-11T02:20:57.193Z,84.86
2023-02-11T02:26:36.239Z,84.89
2023-02-11T02:32:15.600Z,84.97
2023-02-11T02:37:30.701Z,84.86
2023-02-11T02:42:33.685Z,84.89
2023-02-11T02:47:35.467Z,84.97
2023-02-11T02:53:23.420Z,84.96
2023-02-11T02:59:03.293Z,84.90
2023-02-11T03:04:32.826Z,84.84
2023-02-11T03:09:44.125Z,84.81
2023-02-11T03:14:49.612Z,84.82
2023-02-11T03:19:51.759Z,84.83
2023-02-11T03:24:56.313Z,84.81
2023-02-11T03:30:10.160Z,84.78
2023-02-11T03:35:24.259Z,84.64
2023-02-11T03:40:35.962Z,84.46
2023-02-11T03:45:39.867Z,84.36
2023-02-11T03:50:45.089Z,84.31
2023-02-11T03:55:50.228Z,84.23
2023-02-11T04:00:52.369Z,84.09
2023-02-11T04:05:54.265Z,84.00
2023-02-11T04:10:56.024Z,83.85
2023-02-11T04:15:57.707Z,83.79
2023-02-11T04:20:59.660Z,83.75
2023-02-11T04:26:01.438Z,83.65
2023-02-11T04:31:03.567Z,83.69
2023-02-11T04:36:06.313Z,83.80
2023-02-11T04:41:08.192Z,83.88
2023-02-11T04:46:10.215Z,83.97
2023-02-11T04:51:12.268Z,84.26
2023-02-11T04:56:14.268Z,84.32
2023-02-11T05:01:16.868Z,84.33
2023-02-11T05:06:18.702Z,84.49
2023-02-11T05:11:24.375Z,85.29
2023-02-11T05:16:26.101Z,86.39
2023-02-11T05:21:28.020Z,86.94
2023-02-11T05:26:29.665Z,87.57
2023-02-11T05:31:32.397Z,87.58
2023-02-11T05:36:34.491Z,87.79
2023-02-11T05:41:37.690Z,87.82
2023-02-11T05:46:39.609Z,87.75
2023-02-11T05:51:41.357Z,87.90
2023-02-11T05:56:44.905Z,88.15
2023-02-11T06:01:46.829Z,88.49
2023-02-11T06:06:48.813Z,88.73
2023-02-11T06:11:50.492Z,88.74
2023-02-11T06:16:52.261Z,88.83
2023-02-11T06:21:55.873Z,89.12
2023-02-11T06:26:57.676Z,89.12
2023-02-11T06:31:59.964Z,89.13
2023-02-11T06:37:02.545Z,89.10
2023-02-11T06:42:07.916Z,89.07
2023-02-11T06:47:10.485Z,89.21
2023-02-11T06:52:12.471Z,89.42
2023-02-11T06:57:14.247Z,89.57
2023-02-11T07:02:16.785Z,89.54
2023-02-11T07:07:20.056Z,89.69
2023-02-11T07:12:22.654Z,89.74
2023-02-11T07:17:24.725Z,89.87
2023-02-11T07:22:26.496Z,89.82
2023-02-11T07:27:28.313Z,89.89
2023-02-11T07:32:30.152Z,90.00
2023-02-11T07:37:34.906Z,90.11
2023-02-11T07:42:37.080Z,90.32
2023-02-11T07:47:39.367Z,90.35
2023-02-11T07:52:41.448Z,90.46
2023-02-11T07:57:43.436Z,90.60
2023-02-11T08:02:45.203Z,90.79
2023-02-11T08:07:46.972Z,91.00
2023-02-11T08:12:48.753Z,91.07
2023-02-11T08:17:50.423Z,91.29
2023-02-11T08:22:52.230Z,91.65
2023-02-11T08:27:53.971Z,91.62
2023-02-11T08:32:56.472Z,91.71
2023-02-11T08:37:59.060Z,91.74
2023-02-11T08:43:01.366Z,92.03
2023-02-11T08:48:03.325Z,92.04
2023-02-11T08:53:05.443Z,91.91
2023-02-11T08:58:07.953Z,91.90
2023-02-11T09:03:11.935Z,91.94
2023-02-11T09:08:14.516Z,92.17
2023-02-11T09:13:16.608Z,92.25
2023-02-11T09:18:18.485Z,92.14
2023-02-11T09:23:20.258Z,92.15
2023-02-11T09:28:23.091Z,92.22
2023-02-11T09:33:25.452Z,92.14
2023-02-11T09:38:27.215Z,92.23
2023-02-11T09:43:43.740Z,92.43
2023-02-11T09:48:50.263Z,92.60
2023-02-11T09:54:05.531Z,92.42
2023-02-11T09:59:16.134Z,92.53
2023-02-11T10:04:55.260Z,92.68
2023-02-11T10:10:11.057Z,92.58
2023-02-11T10:15:43.721Z,92.59
2023-02-11T10:20:52.821Z,92.50
2023-02-11T10:25:58.447Z,92.44
2023-02-11T10:31:14.660Z,92.29
2023-02-11T10:36:20.654Z,92.26
2023-02-11T10:41:33.412Z,92.36
2023-02-11T10:46:39.808Z,92.47
2023-02-11T10:51:41.869Z,92.42
2023-02-11T10:56:58.069Z,92.51
2023-02-11T11:02:05.579Z,92.61
2023-02-11T11:07:23.533Z,92.72
2023-02-11T11:12:53.463Z,92.83
2023-02-11T11:18:23.065Z,92.75
2023-02-11T11:23:27.689Z,92.78
2023-02-11T11:28:40.059Z,92.94
2023-02-11T11:33:44.187Z,92.89
2023-02-11T11:38:53.757Z,92.85
2023-02-11T11:44:31.876Z,92.86
2023-02-11T11:49:45.214Z,92.90
2023-02-11T11:54:58.250Z,92.74
2023-02-11T12:00:00.064Z,92.85
2023-02-11T12:05:22.185Z,92.95
2023-02-11T12:10:58.708Z,93.08
2023-02-11T12:16:41.358Z,93.23
2023-02-11T12:21:55.872Z,93.10
2023-02-11T12:27:09.946Z,93.19
2023-02-11T12:32:25.946Z,93.26
2023-02-11T12:38:18.882Z,93.21
2023-02-11T12:43:28.913Z,93.31
2023-02-11T12:49:00.572Z,93.40
2023-02-11T12:54:41.808Z,93.43
2023-02-11T13:00:18.172Z,93.52
2023-02-11T13:05:40.067Z,93.43
2023-02-11T13:10:49.042Z,93.43
2023-02-11T13:16:07.370Z,93.57
2023-02-11T13:21:15.350Z,93.33
2023-02-11T13:26:27.893Z,93.39
2023-02-11T13:31:31.574Z,93.72
2023-02-11T13:36:34.691Z,93.89
2023-02-11T13:41:40.937Z,94.14
2023-02-11T13:47:04.585Z,94.22
2023-02-11T13:52:34.488Z,94.28
2023-02-11T13:57:39.802Z,94.21
2023-02-11T14:03:00.787Z,94.35
2023-02-11T14:08:41.387Z,94.43
2023-02-11T14:13:53.212Z,94.36
2023-02-11T14:18:55.453Z,94.23
2023-02-11T14:24:11.229Z,94.09
2023-02-11T14:29:22.557Z,94.01
2023-02-11T14:35:01.528Z,93.93
2023-02-11T14:40:34.217Z,93.90
2023-02-11T14:45:37.427Z,93.81
2023-02-11T14:50:52.323Z,93.69
2023-02-11T14:55:55.505Z,93.46
2023-02-11T15:01:21.755Z,93.47
2023-02-11T15:06:35.965Z,93.39
2023-02-11T15:11:41.888Z,93.28
2023-02-11T15:16:46.434Z,93.43
2023-02-11T15:21:50.370Z,93.51
2023-02-11T15:27:15.713Z,93.35
2023-02-11T15:32:25.258Z,93.13
2023-02-11T15:37:31.856Z,93.31
2023-02-11T15:42:47.227Z,93.04
2023-02-11T15:48:11.547Z,93.26
2023-02-11T15:53:28.570Z,93.17
2023-02-11T15:58:37.420Z,93.23
2023-02-11T16:03:42.870Z,93.26
2023-02-11T16:08:59.758Z,93.32
2023-02-11T16:14:21.242Z,93.17
2023-02-11T16:19:27.103Z,93.04
2023-02-11T16:24:35.979Z,92.93
2023-02-11T16:29:37.936Z,92.79
2023-02-11T16:34:40.012Z,92.68
2023-02-11T16:39:42.086Z,92.57
2023-02-11T16:44:43.867Z,92.48
2023-02-11T16:49:46.166Z,92.33
2023-02-11T16:54:48.539Z,92.24
2023-02-11T16:59:51.963Z,92.17
2023-02-11T17:04:57.498Z,92.18
2023-02-11T17:09:59.932Z,92.14
2023-02-11T17:15:01.829Z,91.89
2023-02-11T17:20:04.920Z,91.52
2023-02-11T17:25:07.626Z,91.49
2023-02-11T17:30:12.868Z,91.25
2023-02-11T17:35:14.820Z,90.54
2023-02-11T17:40:17.211Z,89.83
2023-02-11T17:45:22.086Z,89.40
2023-02-11T17:50:24.064Z,89.43
2023-02-11T17:55:25.839Z,89.57
2023-02-11T18:00:27.992Z,89.14
2023-02-11T18:05:37.196Z,88.95
2023-02-11T18:10:41.831Z,88.84
2023-02-11T18:15:43.888Z,87.93
2023-02-11T18:20:59.471Z,86.49
2023-02-11T18:26:02.473Z,86.28
2023-02-11T18:31:06.394Z,86.46
2023-02-11T18:36:13.107Z,87.04
2023-02-11T18:41:15.277Z,86.78
2023-02-11T18:46:17.465Z,85.88
2023-02-11T18:51:19.541Z,85.54
2023-02-11T18:56:24.707Z,85.56
2023-02-11T19:01:29.098Z,85.99
2023-02-11T19:06:35.997Z,86.13
2023-02-11T19:11:53.691Z,86.28
2023-02-11T19:16:59.410Z,86.35
2023-02-11T19:22:06.142Z,86.07
2023-02-11T19:27:10.061Z,85.86
2023-02-11T19:32:11.950Z,86.02
2023-02-11T19:37:14.220Z,86.13
2023-02-11T19:42:16.009Z,86.50
2023-02-11T19:47:17.803Z,86.32
2023-02-11T19:52:20.061Z,86.10
2023-02-11T19:57:22.069Z,86.39
2023-02-11T20:02:24.269Z,86.39
2023-02-11T20:07:26.411Z,86.63
2023-02-11T20:12:28.633Z,86.69
2023-02-11T20:17:30.678Z,86.69
2023-02-11T20:22:33.888Z,86.63
2023-02-11T20:27:35.765Z,86.40
2023-02-11T20:32:38.290Z,86.17
2023-02-11T20:37:43.695Z,86.20
2023-02-11T20:42:46.105Z,85.94
2023-02-11T20:47:48.182Z,85.93
2023-02-11T20:52:50.700Z,85.99
2023-02-11T20:57:52.693Z,86.26
2023-02-11T21:02:54.913Z,86.48
2023-02-11T21:07:57.035Z,86.49
2023-02-11T21:13:00.031Z,86.39
2023-02-11T21:18:01.925Z,86.31
2023-02-11T21:23:04.297Z,86.17
2023-02-11T21:28:06.356Z,86.19
2023-02-11T21:33:08.176Z,86.33
2023-02-11T21:38:10.373Z,86.31
2023-02-11T21:43:12.218Z,86.43
2023-02-11T21:48:15.882Z,86.55
2023-02-11T21:53:17.714Z,86.57
2023-02-11T21:58:19.513Z,86.56
2023-02-11T22:03:21.265Z,86.49
2023-02-11T22:08:23.041Z,86.54
2023-02-11T22:13:24.919Z,86.46
2023-02-11T22:18:27.822Z,86.75
2023-02-11T22:23:31.138Z,86.76
2023-02-11T22:28:34.044Z,86.94
2023-02-11T22:33:36.007Z,86.96
2023-02-11T22:38:37.888Z,87.14
2023-02-11T22:43:42.797Z,87.23
2023-02-11T22:48:46.040Z,87.26
2023-02-11T22:54:04.097Z,87.38
2023-02-11T22:59:14.691Z,87.23
2023-02-11T23:04:18.706Z,86.90
2023-02-11T23:09:20.632Z,86.89
2023-02-11T23:14:22.461Z,86.14
2023-02-11T23:19:24.337Z,85.39
2023-02-11T23:24:26.142Z,84.45
2023-02-11T23:29:27.906Z,84.11
2023-02-11T23:34:29.673Z,83.79
2023-02-11T23:39:31.584Z,83.36
2023-02-11T23:44:33.422Z,82.91
2023-02-11T23:49:35.452Z,82.69
2023-02-11T23:54:37.284Z,82.64
2023-02-11T23:59:39.264Z,82.54
